createdAt,value
2018-11-07T00:01:45.577Z,8.83
2018-11-07T00:07:14.046Z,11.15
2018-11-07T00:09:49.527Z,10.43
2018-11-07T00:12:25.591Z,12.47
2018-11-07T00:15:01.708Z,13.80
2018-11-07T00:17:37.498Z,9.93
2018-11-07T00:20:13.026Z,10.35
2018-11-07T00:22:48.046Z,12.73
2018-11-07T00:25:23.353Z,11.53
2018-11-07T00:27:57.997Z,10.97
2018-11-07T00:30:32.705Z,10.68
2018-11-07T00:35:59.305Z,12.85
2018-11-07T00:38:34.994Z,11.43
2018-11-07T00:41:11.580Z,10.78
2018-11-07T00:43:48.530Z,12.25
2018-11-07T00:49:18.419Z,10.78
2018-11-07T00:51:53.444Z,14.03
2018-11-07T00:54:28.414Z,12.10
2018-11-07T00:57:03.554Z,14.10
2018-11-07T00:59:38.794Z,13.75
2018-11-07T01:02:16.643Z,12.18
2018-11-07T01:04:51.334Z,12.30
2018-11-07T01:07:27.872Z,10.48
2018-11-07T01:10:02.606Z,10.53
2018-11-07T01:12:39.062Z,13.10
2018-11-07T01:15:14.686Z,10.03
2018-11-07T01:17:50.360Z,11.80
2018-11-07T01:20:25.238Z,11.00
2018-11-07T01:23:00.133Z,11.33
2018-11-07T01:25:35.745Z,12.00
2018-11-07T01:28:10.772Z,9.55
2018-11-07T01:30:46.388Z,12.85
2018-11-07T01:33:21.813Z,11.45
2018-11-07T01:35:56.677Z,11.33
2018-11-07T01:38:31.924Z,8.68
2018-11-07T01:41:08.053Z,12.47
2018-11-07T01:43:43.461Z,11.43
2018-11-07T01:49:02.570Z,11.97
2018-11-07T01:51:38.987Z,12.05
2018-11-07T01:54:13.487Z,9.27
2018-11-07T01:56:49.228Z,11.55
2018-11-07T01:59:24.671Z,11.30
2018-11-07T02:02:00.723Z,8.37
2018-11-07T02:04:35.898Z,10.55
2018-11-07T02:07:11.007Z,10.45
2018-11-07T02:09:46.103Z,10.35
2018-11-07T02:12:22.929Z,11.30
2018-11-07T02:14:57.929Z,11.33
2018-11-07T02:17:33.567Z,8.45
2018-11-07T02:20:09.866Z,10.60
2018-11-07T02:22:47.281Z,11.93
2018-11-07T02:25:22.417Z,9.33
2018-11-07T02:27:58.259Z,9.20
2018-11-07T02:30:32.526Z,11.50
2018-11-07T02:33:07.523Z,9.10
2018-11-07T02:35:42.706Z,7.53
2018-11-07T02:38:18.291Z,9.23
2018-11-07T02:40:52.624Z,8.60
2018-11-07T02:43:28.151Z,9.20
2018-11-07T02:46:02.535Z,11.43
2018-11-07T02:48:38.332Z,11.78
2018-11-07T02:51:13.154Z,11.63
2018-11-07T02:53:47.881Z,9.50
2018-11-07T02:56:22.763Z,7.60
2018-11-07T02:58:57.610Z,9.63
2018-11-07T03:01:31.996Z,19.73
2018-11-07T03:04:07.236Z,9.65
2018-11-07T03:06:43.075Z,10.70
2018-11-07T03:09:17.784Z,8.43
2018-11-07T03:11:52.713Z,8.90
2018-11-07T03:14:28.615Z,10.23
2018-11-07T03:17:04.807Z,10.15
2018-11-07T03:19:39.960Z,10.30
2018-11-07T03:22:14.759Z,10.00
2018-11-07T03:24:49.398Z,9.40
2018-11-07T03:27:25.414Z,7.80
2018-11-07T03:30:00.843Z,9.98
2018-11-07T03:32:36.387Z,7.37
2018-11-07T03:38:18.360Z,9.73
2018-11-07T03:40:53.715Z,8.57
2018-11-07T03:43:28.565Z,10.55
2018-11-07T03:46:03.032Z,8.48
2018-11-07T03:48:37.434Z,8.30
2018-11-07T03:51:11.733Z,8.60
2018-11-07T03:53:47.278Z,7.83
2018-11-07T03:56:22.136Z,6.55
2018-11-07T03:58:56.832Z,6.70
2018-11-07T04:01:32.415Z,6.37
2018-11-07T04:04:07.605Z,9.83
2018-11-07T04:06:43.072Z,9.97
2018-11-07T04:09:18.439Z,7.03
2018-11-07T04:11:53.620Z,6.13
2018-11-07T04:14:29.119Z,7.60
2018-11-07T04:17:04.136Z,7.67
2018-11-07T04:19:39.501Z,5.83
2018-11-07T04:22:14.199Z,5.97
2018-11-07T04:24:48.687Z,5.55
2018-11-07T04:27:23.999Z,5.97
2018-11-07T04:29:59.437Z,5.12
2018-11-07T04:32:34.227Z,5.50
2018-11-07T04:35:10.411Z,6.03
2018-11-07T04:37:45.424Z,5.20
2018-11-07T04:40:20.419Z,3.77
2018-11-07T04:42:55.248Z,3.53
2018-11-07T04:45:31.345Z,4.13
2018-11-07T04:48:06.998Z,5.07
2018-11-07T04:50:42.457Z,3.77
2018-11-07T04:53:17.954Z,4.13
2018-11-07T04:55:52.637Z,5.60
2018-11-07T04:58:27.589Z,3.98
2018-11-07T05:01:02.217Z,3.83
2018-11-07T05:03:38.248Z,4.67
2018-11-07T05:08:55.538Z,5.13
2018-11-07T05:11:31.559Z,3.90
2018-11-07T05:14:06.696Z,3.53
2018-11-07T05:16:42.397Z,3.67
2018-11-07T05:19:16.744Z,4.30
2018-11-07T05:21:51.036Z,4.03
2018-11-07T05:24:26.626Z,5.20
2018-11-07T05:27:02.120Z,5.17
2018-11-07T05:29:37.039Z,4.03
2018-11-07T05:32:12.066Z,6.75
2018-11-07T05:34:47.606Z,4.13
2018-11-07T05:37:22.527Z,3.75
2018-11-07T05:39:57.841Z,5.60
2018-11-07T05:42:32.559Z,5.97
2018-11-07T05:45:08.569Z,5.27
2018-11-07T05:47:44.052Z,5.92
2018-11-07T05:50:19.940Z,6.20
2018-11-07T05:52:55.462Z,5.20
2018-11-07T05:55:30.603Z,4.78
2018-11-07T05:58:05.923Z,4.65
2018-11-07T06:00:41.951Z,5.20
2018-11-07T06:03:16.848Z,3.37
2018-11-07T06:05:51.907Z,5.13
2018-11-07T06:08:27.535Z,5.33
2018-11-07T06:11:03.562Z,4.85
2018-11-07T06:13:38.886Z,4.07
2018-11-07T06:16:13.940Z,4.00
2018-11-07T06:18:49.835Z,6.03
2018-11-07T06:21:24.358Z,4.30
2018-11-07T06:24:00.180Z,4.77
2018-11-07T06:26:35.901Z,4.57
2018-11-07T06:29:10.958Z,4.37
2018-11-07T06:31:46.418Z,2.90
2018-11-07T06:34:21.417Z,4.10
2018-11-07T06:39:56.472Z,4.90
2018-11-07T06:42:32.789Z,4.33
2018-11-07T06:47:49.935Z,2.37
2018-11-07T06:50:24.425Z,3.63
2018-11-07T06:53:00.371Z,4.43
2018-11-07T06:55:36.107Z,4.60
2018-11-07T07:00:53.274Z,2.27
2018-11-07T07:03:27.955Z,5.30
2018-11-07T07:06:03.588Z,4.83
2018-11-07T07:08:38.494Z,4.80
2018-11-07T07:11:13.343Z,2.83
2018-11-07T07:13:47.899Z,4.35
2018-11-07T07:16:24.111Z,5.77
2018-11-07T07:19:00.647Z,5.03
2018-11-07T07:21:36.089Z,2.97
2018-11-07T07:24:10.941Z,3.05
2018-11-07T07:26:45.623Z,4.62
2018-11-07T07:29:20.815Z,6.37
2018-11-07T07:31:57.803Z,4.45
2018-11-07T07:34:34.024Z,5.03
2018-11-07T07:39:56.601Z,2.87
2018-11-07T07:42:31.437Z,1.87
2018-11-07T07:45:06.610Z,3.27
2018-11-07T07:47:42.876Z,3.97
2018-11-07T07:50:19.962Z,5.10
2018-11-07T07:52:55.468Z,3.37
2018-11-07T07:55:30.951Z,4.65
2018-11-07T07:58:06.436Z,8.03
2018-11-07T08:00:41.367Z,2.90
2018-11-07T08:03:16.467Z,3.65
2018-11-07T08:05:51.908Z,3.17
2018-11-07T08:08:27.023Z,2.17
2018-11-07T08:11:02.361Z,2.80
2018-11-07T08:13:37.193Z,2.50
2018-11-07T08:16:12.522Z,3.42
2018-11-07T08:18:47.212Z,2.58
2018-11-07T08:21:21.503Z,2.10
2018-11-07T08:23:56.170Z,3.02
2018-11-07T08:29:42.719Z,2.30
2018-11-07T08:32:17.455Z,2.42
2018-11-07T08:38:06.525Z,2.25
2018-11-07T08:40:41.929Z,3.52
2018-11-07T08:43:16.872Z,1.82
2018-11-07T08:49:11.190Z,2.10
2018-11-07T08:51:47.051Z,2.55
2018-11-07T08:54:23.714Z,1.98
2018-11-07T08:56:59.945Z,1.65
2018-11-07T09:02:20.058Z,1.70
2018-11-07T09:04:56.157Z,1.55
2018-11-07T09:07:30.885Z,2.45
2018-11-07T09:10:05.569Z,2.62
2018-11-07T09:12:42.234Z,2.05
2018-11-07T09:15:19.555Z,1.67
2018-11-07T09:17:54.171Z,1.67
2018-11-07T09:20:29.153Z,2.27
2018-11-07T09:23:03.732Z,1.42
2018-11-07T09:25:38.651Z,2.80
2018-11-07T09:28:14.135Z,2.45
2018-11-07T09:30:49.164Z,2.42
2018-11-07T09:41:53.103Z,2.62
2018-11-07T09:44:29.588Z,1.55
2018-11-07T09:47:04.156Z,2.58
2018-11-07T09:49:41.010Z,2.05
2018-11-07T09:52:16.118Z,1.45
2018-11-07T09:54:51.093Z,1.60
2018-11-07T09:57:27.423Z,2.17
2018-11-07T10:00:02.646Z,3.30
2018-11-07T10:02:37.366Z,1.75
2018-11-07T10:05:12.830Z,1.87
2018-11-07T10:07:47.812Z,2.35
2018-11-07T10:10:24.991Z,2.37
2018-11-07T10:18:31.632Z,1.98
2018-11-07T10:21:07.754Z,2.35
2018-11-07T10:23:42.874Z,1.85
2018-11-07T10:26:17.701Z,3.00
2018-11-07T10:28:53.152Z,2.87
2018-11-07T10:31:28.040Z,2.17
2018-11-07T10:34:03.086Z,2.58
2018-11-07T10:36:39.141Z,2.87
2018-11-07T10:39:15.213Z,1.45
2018-11-07T10:41:50.890Z,2.35
2018-11-07T10:44:25.867Z,1.22
2018-11-07T10:47:00.071Z,1.98
2018-11-07T10:52:31.714Z,1.82
2018-11-07T10:55:07.119Z,1.40
2018-11-07T10:57:43.209Z,2.15
2018-11-07T11:00:37.614Z,1.22
2018-11-07T11:09:19.710Z,1.30
2018-11-07T11:11:54.239Z,2.15
2018-11-07T11:14:29.274Z,1.52
2018-11-07T11:19:39.704Z,1.70
2018-11-07T11:22:15.112Z,1.92
2018-11-07T11:24:50.986Z,1.75
2018-11-07T11:27:27.469Z,2.40
2018-11-07T11:30:02.723Z,2.30
2018-11-07T11:32:38.645Z,4.47
2018-11-07T11:35:14.163Z,2.30
2018-11-07T11:37:49.489Z,1.92
2018-11-07T11:40:24.187Z,2.35
2018-11-07T11:42:59.247Z,1.70
2018-11-07T11:45:33.946Z,3.17
2018-11-07T11:48:09.253Z,1.57
2018-11-07T11:53:35.541Z,2.35
2018-11-07T11:56:11.128Z,3.02
2018-11-07T12:01:33.318Z,1.10
2018-11-07T12:04:09.791Z,1.92
2018-11-07T12:06:45.414Z,2.92
2018-11-07T12:12:03.853Z,3.15
2018-11-07T12:14:39.965Z,0.93
2018-11-07T12:17:16.063Z,1.22
2018-11-07T12:19:53.008Z,2.37
2018-11-07T12:22:30.106Z,1.72
2018-11-07T12:25:05.435Z,2.17
2018-11-07T12:27:41.650Z,2.00
2018-11-07T12:33:08.066Z,1.60
2018-11-07T12:35:43.571Z,2.60
2018-11-07T12:38:19.247Z,1.47
2018-11-07T12:40:54.662Z,1.60
2018-11-07T12:43:30.572Z,2.70
2018-11-07T12:46:06.152Z,2.35
2018-11-07T12:48:44.091Z,1.00
2018-11-07T12:54:07.802Z,1.55
2018-11-07T12:56:42.703Z,3.22
2018-11-07T12:59:17.523Z,1.60
2018-11-07T13:01:52.374Z,1.98
2018-11-07T13:04:26.827Z,2.17
2018-11-07T13:07:02.084Z,1.57
2018-11-07T13:09:37.314Z,3.27
2018-11-07T13:12:12.962Z,2.85
2018-11-07T13:14:49.226Z,1.92
2018-11-07T13:20:07.515Z,4.15
2018-11-07T13:22:42.142Z,2.27
2018-11-07T13:28:01.108Z,1.15
2018-11-07T13:30:35.947Z,1.32
2018-11-07T13:33:11.393Z,3.20
2018-11-07T13:35:46.077Z,2.62
2018-11-07T13:38:21.016Z,1.30
2018-11-07T13:40:55.446Z,1.82
2018-11-07T13:43:30.570Z,3.08
2018-11-07T13:46:05.124Z,2.10
2018-11-07T13:48:42.585Z,2.40
2018-11-07T13:51:19.153Z,1.52
2018-11-07T13:56:35.462Z,1.30
2018-11-07T13:59:10.310Z,1.62
2018-11-07T14:01:45.789Z,1.52
2018-11-07T14:07:02.596Z,2.10
2018-11-07T14:12:20.179Z,1.80
2018-11-07T14:14:54.651Z,3.35
2018-11-07T14:17:32.023Z,2.40
2018-11-07T14:20:06.483Z,3.45
2018-11-07T14:22:42.046Z,1.10
2018-11-07T14:25:18.429Z,1.30
2018-11-07T14:27:54.076Z,1.95
2018-11-07T14:30:30.070Z,1.27
2018-11-07T14:33:05.595Z,1.75
2018-11-07T14:35:40.635Z,1.55
2018-11-07T14:38:16.148Z,1.25
2018-11-07T14:40:53.664Z,3.40
2018-11-07T14:43:28.778Z,5.12
2018-11-07T14:46:14.068Z,1.32
2018-11-07T14:49:03.064Z,1.62
2018-11-07T14:51:42.000Z,2.80
2018-11-07T14:54:16.685Z,5.42
2018-11-07T14:56:53.065Z,2.37
2018-11-07T14:59:28.769Z,3.08
2018-11-07T15:02:03.485Z,1.57
2018-11-07T15:04:39.757Z,2.27
2018-11-07T15:07:14.729Z,2.35
2018-11-07T15:09:51.543Z,1.47
2018-11-07T15:12:26.850Z,2.20
2018-11-07T15:15:03.886Z,1.50
2018-11-07T15:17:38.450Z,2.45
2018-11-07T15:23:00.589Z,1.95
2018-11-07T15:25:35.704Z,3.72
2018-11-07T15:28:09.939Z,2.20
2018-11-07T15:30:45.859Z,1.30
2018-11-07T15:33:24.179Z,1.90
2018-11-07T15:35:59.757Z,3.75
2018-11-07T15:38:35.190Z,2.58
2018-11-07T15:41:10.739Z,5.70
2018-11-07T15:43:45.415Z,2.58
2018-11-07T15:49:00.263Z,3.15
2018-11-07T15:51:40.551Z,2.15
2018-11-07T15:54:16.146Z,3.83
2018-11-07T15:56:50.639Z,4.97
2018-11-07T15:59:25.316Z,4.80
2018-11-07T16:01:59.658Z,6.22
2018-11-07T16:04:34.438Z,4.03
2018-11-07T16:07:10.188Z,5.42
2018-11-07T16:09:47.030Z,3.35
2018-11-07T16:12:22.191Z,3.25
2018-11-07T16:17:43.217Z,4.20
2018-11-07T16:20:20.655Z,3.42
2018-11-07T16:22:56.692Z,1.87
2018-11-07T16:25:32.586Z,3.35
2018-11-07T16:28:07.541Z,3.77
2018-11-07T16:30:42.532Z,2.58
2018-11-07T16:33:20.011Z,3.67
2018-11-07T16:35:56.598Z,3.20
2018-11-07T16:41:39.004Z,2.08
2018-11-07T16:44:14.089Z,2.95
2018-11-07T16:46:48.427Z,3.25
2018-11-07T16:49:22.689Z,4.10
2018-11-07T16:51:57.978Z,3.67
2018-11-07T16:54:33.747Z,4.33
2018-11-07T16:57:11.696Z,2.85
2018-11-07T16:59:46.526Z,3.40
2018-11-07T17:02:22.395Z,4.47
2018-11-07T17:04:57.181Z,6.35
2018-11-07T17:07:33.005Z,5.33
2018-11-07T17:10:10.574Z,4.28
2018-11-07T17:12:45.658Z,4.72
2018-11-07T17:18:04.400Z,3.97
2018-11-07T17:20:40.452Z,3.90
2018-11-07T17:23:18.530Z,5.85
2018-11-07T17:25:53.062Z,5.00
2018-11-07T17:28:27.933Z,5.33
2018-11-07T17:31:02.578Z,3.90
2018-11-07T17:33:37.597Z,3.10
2018-11-07T17:36:14.158Z,6.15
2018-11-07T17:38:50.491Z,4.95
2018-11-07T17:41:26.582Z,4.20
2018-11-07T17:44:02.052Z,4.60
2018-11-07T17:46:37.528Z,4.83
2018-11-07T17:49:12.144Z,3.72
2018-11-07T17:54:33.525Z,5.12
2018-11-07T17:57:09.940Z,5.00
2018-11-07T18:02:34.047Z,9.20
2018-11-07T18:05:12.721Z,6.77
2018-11-07T18:07:48.048Z,3.95
2018-11-07T18:10:26.146Z,4.33
2018-11-07T18:15:45.990Z,4.40
2018-11-07T18:18:24.726Z,3.52
2018-11-07T18:23:44.643Z,4.28
2018-11-07T18:26:19.953Z,4.10
2018-11-07T18:28:55.810Z,4.35
2018-11-07T18:31:31.525Z,4.95
2018-11-07T18:34:06.487Z,7.33
2018-11-07T18:36:44.148Z,9.50
2018-11-07T18:39:21.695Z,4.37
2018-11-07T18:41:57.095Z,4.40
2018-11-07T18:44:35.389Z,4.53
2018-11-07T18:47:09.645Z,5.67
2018-11-07T18:49:45.533Z,6.08
2018-11-07T18:52:21.173Z,5.40
2018-11-07T18:54:57.125Z,3.97
2018-11-07T18:57:31.232Z,5.80
2018-11-07T19:00:08.329Z,4.47
2018-11-07T19:05:27.870Z,6.53
2018-11-07T19:08:03.015Z,3.22
2018-11-07T19:10:38.354Z,6.35
2018-11-07T19:13:15.138Z,3.90
2018-11-07T19:15:50.858Z,4.45
2018-11-07T19:18:29.680Z,7.35
2018-11-07T19:23:44.878Z,3.50
2018-11-07T19:26:22.252Z,5.45
2018-11-07T19:28:57.198Z,5.12
2018-11-07T19:31:32.469Z,5.90
2018-11-07T19:34:07.758Z,5.03
2018-11-07T19:36:46.135Z,4.70
2018-11-07T19:39:24.553Z,3.67
2018-11-07T19:41:59.294Z,3.67
2018-11-07T19:44:35.933Z,3.87
2018-11-07T19:47:10.615Z,3.98
2018-11-07T19:49:45.958Z,4.93
2018-11-07T19:55:04.633Z,4.57
2018-11-07T19:57:40.190Z,4.85
2018-11-07T20:00:16.013Z,5.17
2018-11-07T20:02:50.726Z,5.67
2018-11-07T20:05:25.101Z,3.17
2018-11-07T20:08:00.083Z,4.60
2018-11-07T20:13:15.156Z,4.50
2018-11-07T20:15:49.991Z,8.23
2018-11-07T20:18:24.373Z,5.25
2018-11-07T20:21:00.305Z,8.33
2018-11-07T20:23:38.798Z,6.03
2018-11-07T20:26:12.757Z,4.70
2018-11-07T20:28:49.939Z,3.72
2018-11-07T20:31:25.150Z,7.05
2018-11-07T20:33:59.573Z,4.33
2018-11-07T20:36:34.057Z,7.47
2018-11-07T20:39:12.438Z,5.40
2018-11-07T20:41:48.034Z,5.87
2018-11-07T20:44:23.104Z,4.75
2018-11-07T20:46:58.175Z,4.75
2018-11-07T20:49:32.644Z,4.63
2018-11-07T20:52:07.642Z,5.95
2018-11-07T20:57:50.395Z,3.92
2018-11-07T21:00:25.004Z,3.60
2018-11-07T21:02:59.824Z,3.53
2018-11-07T21:05:36.407Z,3.87
2018-11-07T21:08:13.562Z,3.02
2018-11-07T21:10:48.936Z,5.05
2018-11-07T21:13:24.011Z,3.90
2018-11-07T21:15:59.396Z,3.70
2018-11-07T21:21:17.913Z,7.25
2018-11-07T21:23:53.835Z,4.87
2018-11-07T21:26:28.687Z,4.08
2018-11-07T21:29:03.474Z,4.35
2018-11-07T21:31:40.498Z,6.47
2018-11-07T21:34:16.107Z,4.62
2018-11-07T21:36:53.737Z,7.08
2018-11-07T21:39:29.615Z,5.45
2018-11-07T21:42:05.238Z,7.12
2018-11-07T21:44:41.598Z,4.72
2018-11-07T21:47:16.286Z,5.12
2018-11-07T21:49:52.356Z,4.80
2018-11-07T21:57:56.577Z,5.50
2018-11-07T22:00:31.238Z,4.27
2018-11-07T22:03:07.673Z,3.70
2018-11-07T22:05:42.944Z,3.70
2018-11-07T22:11:13.365Z,2.67
2018-11-07T22:13:48.443Z,3.45
2018-11-07T22:16:23.356Z,4.22
2018-11-07T22:18:58.620Z,3.60
2018-11-07T22:21:39.247Z,6.60
2018-11-07T22:24:15.590Z,4.35
2018-11-07T22:26:51.603Z,3.53
2018-11-07T22:32:11.800Z,6.77
2018-11-07T22:34:46.929Z,3.42
2018-11-07T22:37:21.895Z,5.12
2018-11-07T22:39:57.734Z,4.35
2018-11-07T22:42:35.801Z,5.03
2018-11-07T22:45:12.207Z,5.42
2018-11-07T22:47:47.639Z,5.37
2018-11-07T22:50:22.448Z,4.37
2018-11-07T22:52:57.163Z,6.10
2018-11-07T22:55:33.648Z,3.87
2018-11-07T22:58:08.825Z,3.90
2018-11-07T23:01:01.949Z,4.25
2018-11-07T23:03:37.829Z,3.55
2018-11-07T23:06:12.027Z,6.80
2018-11-07T23:11:29.890Z,3.87
2018-11-07T23:14:05.755Z,5.95
2018-11-07T23:16:40.835Z,6.60
2018-11-07T23:19:17.356Z,6.60
2018-11-07T23:21:55.347Z,5.45
2018-11-07T23:24:30.136Z,6.13
2018-11-07T23:27:05.823Z,4.37
2018-11-07T23:29:42.365Z,4.67
2018-11-07T23:32:17.141Z,5.45
2018-11-07T23:34:52.183Z,6.08
2018-11-07T23:40:10.986Z,5.50
2018-11-07T23:42:46.901Z,7.10
2018-11-07T23:45:21.876Z,7.25
2018-11-07T23:47:58.055Z,4.27
2018-11-07T23:50:32.641Z,4.42
2018-11-07T23:53:08.706Z,6.10
2018-11-07T23:55:43.312Z,5.78
2018-11-07T23:58:18.020Z,4.87
